sensor_id;sensor_type;location;lat;lon;timestamp;P1;durP1;ratioP1;P2;durP2;ratioP2
16967;SDS011;8600;54.338;10.128;2022-07-29T19:10:05;9.00;;;2.53;;
16967;SDS011;8600;54.338;10.128;2022-07-29T19:12:33;8.20;;;2.20;;
16967;SDS011;8600;54.338;10.128;2022-07-29T19:15:00;7.88;;;1.88;;
16967;SDS011;8600;54.338;10.128;2022-07-29T19:17:27;7.38;;;1.90;;
16967;SDS011;8600;54.338;10.128;2022-07-29T19:19:54;10.93;;;1.77;;
16967;SDS011;8600;54.338;10.128;2022-07-29T19:22:21;9.13;;;2.00;;
16967;SDS011;8600;54.338;10.128;2022-07-29T19:24:48;10.77;;;2.20;;
16967;SDS011;8600;54.338;10.128;2022-07-29T19:27:17;9.68;;;2.45;;
16967;SDS011;8600;54.338;10.128;2022-07-29T19:29:46;7.07;;;1.98;;
16967;SDS011;8600;54.338;10.128;2022-07-29T19:32:13;8.32;;;2.05;;
16967;SDS011;8600;54.338;10.128;2022-07-29T19:34:40;11.07;;;2.08;;
16967;SDS011;8600;54.338;10.128;2022-07-29T19:37:08;12.95;;;2.65;;
16967;SDS011;8600;54.338;10.128;2022-07-29T19:39:36;11.73;;;2.45;;
16967;SDS011;8600;54.338;10.128;2022-07-29T19:42:06;9.43;;;2.42;;
16967;SDS011;8600;54.338;10.128;2022-07-29T19:44:35;9.93;;;2.42;;
16967;SDS011;8600;54.338;10.128;2022-07-29T19:47:02;7.88;;;2.15;;
16967;SDS011;8600;54.338;10.128;2022-07-29T19:49:30;10.48;;;2.30;;
16967;SDS011;8600;54.338;10.128;2022-07-29T19:52:01;11.63;;;2.78;;
16967;SDS011;8600;54.338;10.128;2022-07-29T19:54:28;10.43;;;2.33;;
16967;SDS011;8600;54.338;10.128;2022-07-29T19:56:55;7.82;;;2.28;;
16967;SDS011;8600;54.338;10.128;2022-07-29T19:59:22;8.00;;;2.28;;
16967;SDS011;8600;54.338;10.128;2022-07-29T20:01:51;11.15;;;2.30;;
16967;SDS011;8600;54.338;10.128;2022-07-29T20:04:18;9.40;;;2.30;;
16967;SDS011;8600;54.338;10.128;2022-07-29T20:06:45;12.30;;;2.45;;
16967;SDS011;8600;54.338;10.128;2022-07-29T20:09:13;7.70;;;2.30;;
16967;SDS011;8600;54.338;10.128;2022-07-29T20:11:40;9.25;;;2.50;;
16967;SDS011;8600;54.338;10.128;2022-07-29T20:14:07;10.32;;;2.25;;
16967;SDS011;8600;54.338;10.128;2022-07-29T20:16:34;12.07;;;2.40;;
16967;SDS011;8600;54.338;10.128;2022-07-29T20:19:02;7.55;;;2.25;;
16967;SDS011;8600;54.338;10.128;2022-07-29T20:21:29;8.23;;;2.42;;
16967;SDS011;8600;54.338;10.128;2022-07-29T20:23:58;8.75;;;2.72;;
16967;SDS011;8600;54.338;10.128;2022-07-29T20:26:26;10.68;;;2.40;;
16967;SDS011;8600;54.338;10.128;2022-07-29T20:28:53;10.85;;;2.72;;
16967;SDS011;8600;54.338;10.128;2022-07-29T20:31:20;12.73;;;2.55;;
16967;SDS011;8600;54.338;10.128;2022-07-29T20:33:47;11.88;;;2.70;;
16967;SDS011;8600;54.338;10.128;2022-07-29T20:36:15;15.40;;;2.55;;
16967;SDS011;8600;54.338;10.128;2022-07-29T20:38:46;10.77;;;2.67;;
16967;SDS011;8600;54.338;10.128;2022-07-29T20:41:13;8.52;;;2.63;;
16967;SDS011;8600;54.338;10.128;2022-07-29T20:43:40;15.02;;;2.72;;
16967;SDS011;8600;54.338;10.128;2022-07-29T20:46:07;11.98;;;2.88;;
16967;SDS011;8600;54.338;10.128;2022-07-29T20:48:34;14.20;;;2.70;;
16967;SDS011;8600;54.338;10.128;2022-07-29T20:51:01;10.20;;;2.97;;
16967;SDS011;8600;54.338;10.128;2022-07-29T20:53:29;11.98;;;2.60;;
16967;SDS011;8600;54.338;10.128;2022-07-29T20:55:58;10.05;;;2.42;;
16967;SDS011;8600;54.338;10.128;2022-07-29T20:58:25;11.90;;;2.47;;
16967;SDS011;8600;54.338;10.128;2022-07-29T21:00:52;10.77;;;2.55;;
16967;SDS011;8600;54.338;10.128;2022-07-29T21:03:19;11.70;;;2.70;;
16967;SDS011;8600;54.338;10.128;2022-07-29T21:05:46;11.80;;;2.97;;
16967;SDS011;8600;54.338;10.128;2022-07-29T21:08:13;8.00;;;2.30;;
16967;SDS011;8600;54.338;10.128;2022-07-29T21:10:41;9.52;;;2.38;;
16967;SDS011;8600;54.338;10.128;2022-07-29T21:13:08;8.65;;;2.45;;
16967;SDS011;8600;54.338;10.128;2022-07-29T21:15:35;9.98;;;2.55;;
16967;SDS011;8600;54.338;10.128;2022-07-29T21:18:02;9.60;;;2.45;;
16967;SDS011;8600;54.338;10.128;2022-07-29T21:20:33;10.13;;;2.55;;
16967;SDS011;8600;54.338;10.128;2022-07-29T21:23:00;7.93;;;2.55;;
16967;SDS011;8600;54.338;10.128;2022-07-29T21:25:27;13.02;;;2.60;;
16967;SDS011;8600;54.338;10.128;2022-07-29T21:27:55;11.00;;;2.72;;
16967;SDS011;8600;54.338;10.128;2022-07-29T21:30:40;12.90;;;2.60;;
16967;SDS011;8600;54.338;10.128;2022-07-29T21:33:07;6.88;;;2.35;;
16967;SDS011;8600;54.338;10.128;2022-07-29T21:35:33;11.60;;;2.40;;
16967;SDS011;8600;54.338;10.128;2022-07-29T21:38:00;10.05;;;2.28;;
16967;SDS011;8600;54.338;10.128;2022-07-29T21:40:27;13.90;;;2.50;;
16967;SDS011;8600;54.338;10.128;2022-07-29T21:42:56;9.65;;;2.53;;
16967;SDS011;8600;54.338;10.128;2022-07-29T21:45:22;6.68;;;2.20;;
16967;SDS011;8600;54.338;10.128;2022-07-29T21:47:50;8.85;;;2.40;;
16967;SDS011;8600;54.338;10.128;2022-07-29T21:50:16;9.50;;;2.58;;
16967;SDS011;8600;54.338;10.128;2022-07-29T21:52:44;11.85;;;2.85;;
16967;SDS011;8600;54.338;10.128;2022-07-29T21:55:10;10.45;;;2.50;;
16967;SDS011;8600;54.338;10.128;2022-07-29T21:57:38;10.90;;;2.63;;
16967;SDS011;8600;54.338;10.128;2022-07-29T22:00:07;13.85;;;2.90;;
16967;SDS011;8600;54.338;10.128;2022-07-29T22:02:39;9.55;;;2.70;;
16967;SDS011;8600;54.338;10.128;2022-07-29T22:05:07;11.05;;;2.50;;
16967;SDS011;8600;54.338;10.128;2022-07-29T22:07:34;8.18;;;2.20;;
16967;SDS011;8600;54.338;10.128;2022-07-29T22:10:01;10.25;;;2.88;;
16967;SDS011;8600;54.338;10.128;2022-07-29T22:12:28;8.70;;;2.17;;
16967;SDS011;8600;54.338;10.128;2022-07-29T22:14:55;9.23;;;2.63;;
16967;SDS011;8600;54.338;10.128;2022-07-29T22:17:24;7.07;;;2.40;;
16967;SDS011;8600;54.338;10.128;2022-07-29T22:19:51;9.05;;;2.65;;
16967;SDS011;8600;54.338;10.128;2022-07-29T22:22:18;11.55;;;2.67;;
16967;SDS011;8600;54.338;10.128;2022-07-29T22:24:46;8.63;;;2.30;;
16967;SDS011;8600;54.338;10.128;2022-07-29T22:27:13;10.15;;;2.72;;
16967;SDS011;8600;54.338;10.128;2022-07-29T22:29:40;9.73;;;2.25;;
16967;SDS011;8600;54.338;10.128;2022-07-29T22:32:06;10.63;;;2.60;;
16967;SDS011;8600;54.338;10.128;2022-07-29T22:34:35;10.07;;;2.67;;
16967;SDS011;8600;54.338;10.128;2022-07-29T22:37:02;10.02;;;2.65;;
16967;SDS011;8600;54.338;10.128;2022-07-29T22:39:29;9.25;;;2.70;;
16967;SDS011;8600;54.338;10.128;2022-07-29T22:41:56;9.95;;;2.40;;
16967;SDS011;8600;54.338;10.128;2022-07-29T22:44:23;10.07;;;2.67;;
16967;SDS011;8600;54.338;10.128;2022-07-29T22:46:50;8.82;;;2.80;;
16967;SDS011;8600;54.338;10.128;2022-07-29T22:49:17;9.40;;;2.83;;
16967;SDS011;8600;54.338;10.128;2022-07-29T22:51:46;10.98;;;2.60;;
16967;SDS011;8600;54.338;10.128;2022-07-29T22:54:13;7.57;;;2.53;;
16967;SDS011;8600;54.338;10.128;2022-07-29T22:56:40;10.82;;;2.50;;
16967;SDS011;8600;54.338;10.128;2022-07-29T22:59:07;7.57;;;2.42;;
16967;SDS011;8600;54.338;10.128;2022-07-29T23:01:34;8.52;;;2.65;;
16967;SDS011;8600;54.338;10.128;2022-07-29T23:04:01;11.68;;;2.85;;
16967;SDS011;8600;54.338;10.128;2022-07-29T23:06:28;10.38;;;3.20;;
16967;SDS011;8600;54.338;10.128;2022-07-29T23:08:56;10.95;;;2.80;;
16967;SDS011;8600;54.338;10.128;2022-07-29T23:11:23;10.25;;;2.70;;
16967;SDS011;8600;54.338;10.128;2022-07-29T23:13:50;12.13;;;3.00;;
16967;SDS011;8600;54.338;10.128;2022-07-29T23:16:17;12.68;;;3.20;;
16967;SDS011;8600;54.338;10.128;2022-07-29T23:18:43;9.23;;;2.90;;
16967;SDS011;8600;54.338;10.128;2022-07-29T23:21:11;13.68;;;2.95;;
16967;SDS011;8600;54.338;10.128;2022-07-29T23:23:38;8.30;;;2.83;;
16967;SDS011;8600;54.338;10.128;2022-07-29T23:26:06;12.60;;;3.00;;
16967;SDS011;8600;54.338;10.128;2022-07-29T23:28:33;11.70;;;3.33;;
16967;SDS011;8600;54.338;10.128;2022-07-29T23:31:00;11.02;;;3.10;;
16967;SDS011;8600;54.338;10.128;2022-07-29T23:33:27;7.70;;;2.78;;
16967;SDS011;8600;54.338;10.128;2022-07-29T23:35:54;10.65;;;3.20;;
16967;SDS011;8600;54.338;10.128;2022-07-29T23:38:21;12.02;;;3.45;;
16967;SDS011;8600;54.338;10.128;2022-07-29T23:40:48;13.07;;;3.17;;
16967;SDS011;8600;54.338;10.128;2022-07-29T23:43:16;15.75;;;3.45;;
16967;SDS011;8600;54.338;10.128;2022-07-29T23:45:43;10.82;;;3.40;;
16967;SDS011;8600;54.338;10.128;2022-07-29T23:48:10;11.70;;;3.45;;
16967;SDS011;8600;54.338;10.128;2022-07-29T23:50:38;11.63;;;3.30;;
16967;SDS011;8600;54.338;10.128;2022-07-29T23:53:05;11.70;;;3.45;;
16967;SDS011;8600;54.338;10.128;2022-07-29T23:55:32;17.98;;;3.00;;
16967;SDS011;8600;54.338;10.128;2022-07-29T23:57:59;11.00;;;2.90;;
